Parshall, North Dakota
Current Conditions -  °F | °C
As of 8:15 PM on Thursday 20 Nov 2014 (Local Time) from K08D Reporting Station
Clear Clear  
Wind Chill:   Ceiling: Unl
Heat Index: 14°   Visibility: 10mi
Dew Point: 14°   Wind: 9mph
Humidity: 100%   Direction: 180°S
Pressure: 29.81"   Gusts: NA
Location:  47.95°N, 102.13°W
Report Text: K08D 210215Z AUTO 18008KT 10SM CLR M10/M10 A2981 RMK AO2
Loading
Personal Weather Stations






























Interactive Weather Map New forecast layout! Learn more

10-Day Weather Forecast

Advertisements
Track Severe Weather on mobile